sensor_id;sensor_type;location;lat;lon;timestamp;P1;durP1;ratioP1;P2;durP2;ratioP2
66593;SDS011;53450;42.584;23.366;2022-11-20T00:01:11;4.20;;;1.48;;
66593;SDS011;53450;42.584;23.366;2022-11-20T00:03:41;3.00;;;0.85;;
66593;SDS011;53450;42.584;23.366;2022-11-20T00:06:08;4.35;;;1.30;;
66593;SDS011;53450;42.584;23.366;2022-11-20T00:08:35;1.67;;;0.88;;
66593;SDS011;53450;42.584;23.366;2022-11-20T00:13:31;2.78;;;1.13;;
66593;SDS011;53450;42.584;23.366;2022-11-20T00:15:58;2.22;;;1.10;;
66593;SDS011;53450;42.584;23.366;2022-11-20T00:18:24;2.22;;;1.08;;
66593;SDS011;53450;42.584;23.366;2022-11-20T00:20:50;8.80;;;1.42;;
66593;SDS011;53450;42.584;23.366;2022-11-20T00:23:41;1.30;;;0.90;;
66593;SDS011;53450;42.584;23.366;2022-11-20T00:26:14;2.70;;;1.23;;
66593;SDS011;53450;42.584;23.366;2022-11-20T00:28:41;7.00;;;1.45;;
66593;SDS011;53450;42.584;23.366;2022-11-20T00:31:12;5.07;;;1.17;;
66593;SDS011;53450;42.584;23.366;2022-11-20T00:33:39;2.25;;;1.15;;
66593;SDS011;53450;42.584;23.366;2022-11-20T00:36:15;3.17;;;1.20;;
66593;SDS011;53450;42.584;23.366;2022-11-20T00:38:42;4.82;;;1.30;;
66593;SDS011;53450;42.584;23.366;2022-11-20T00:41:09;2.75;;;1.40;;
66593;SDS011;53450;42.584;23.366;2022-11-20T00:43:36;2.75;;;0.98;;
66593;SDS011;53450;42.584;23.366;2022-11-20T00:46:04;7.78;;;1.30;;
66593;SDS011;53450;42.584;23.366;2022-11-20T00:48:31;4.35;;;1.20;;
66593;SDS011;53450;42.584;23.366;2022-11-20T00:50:57;3.03;;;0.80;;
66593;SDS011;53450;42.584;23.366;2022-11-20T00:53:23;1.88;;;1.00;;
66593;SDS011;53450;42.584;23.366;2022-11-20T00:56:14;1.40;;;1.10;;
66593;SDS011;53450;42.584;23.366;2022-11-20T00:59:08;2.75;;;1.20;;
66593;SDS011;53450;42.584;23.366;2022-11-20T01:01:34;3.03;;;1.20;;
66593;SDS011;53450;42.584;23.366;2022-11-20T01:04:01;3.03;;;1.30;;
66593;SDS011;53450;42.584;23.366;2022-11-20T01:06:31;2.17;;;0.95;;
66593;SDS011;53450;42.584;23.366;2022-11-20T01:08:59;1.83;;;1.10;;
66593;SDS011;53450;42.584;23.366;2022-11-20T01:11:27;3.55;;;1.30;;
66593;SDS011;53450;42.584;23.366;2022-11-20T01:13:58;1.67;;;0.90;;
66593;SDS011;53450;42.584;23.366;2022-11-20T01:16:28;1.92;;;1.02;;
66593;SDS011;53450;42.584;23.366;2022-11-20T01:18:59;22.85;;;1.20;;
66593;SDS011;53450;42.584;23.366;2022-11-20T01:21:27;3.72;;;1.13;;
66593;SDS011;53450;42.584;23.366;2022-11-20T01:23:55;1.73;;;1.15;;
66593;SDS011;53450;42.584;23.366;2022-11-20T01:26:22;1.27;;;0.95;;
66593;SDS011;53450;42.584;23.366;2022-11-20T01:28:51;2.00;;;1.08;;
66593;SDS011;53450;42.584;23.366;2022-11-20T01:33:45;2.65;;;1.02;;
66593;SDS011;53450;42.584;23.366;2022-11-20T01:36:13;1.70;;;1.00;;
66593;SDS011;53450;42.584;23.366;2022-11-20T01:38:40;7.57;;;1.10;;
66593;SDS011;53450;42.584;23.366;2022-11-20T01:41:06;3.75;;;1.10;;
66593;SDS011;53450;42.584;23.366;2022-11-20T01:43:32;1.35;;;0.90;;
66593;SDS011;53450;42.584;23.366;2022-11-20T01:48:45;0.60;;;0.60;;
66593;SDS011;53450;42.584;23.366;2022-11-20T01:53:47;5.22;;;1.08;;
66593;SDS011;53450;42.584;23.366;2022-11-20T01:56:14;5.05;;;1.27;;
66593;SDS011;53450;42.584;23.366;2022-11-20T01:58:42;1.73;;;0.93;;
66593;SDS011;53450;42.584;23.366;2022-11-20T02:01:38;2.88;;;0.90;;
66593;SDS011;53450;42.584;23.366;2022-11-20T02:04:04;6.40;;;1.20;;
66593;SDS011;53450;42.584;23.366;2022-11-20T02:06:33;1.92;;;1.00;;
66593;SDS011;53450;42.584;23.366;2022-11-20T02:09:03;2.00;;;0.98;;
66593;SDS011;53450;42.584;23.366;2022-11-20T02:11:30;3.58;;;1.50;;
66593;SDS011;53450;42.584;23.366;2022-11-20T02:13:56;2.33;;;1.08;;
66593;SDS011;53450;42.584;23.366;2022-11-20T02:18:49;2.42;;;0.90;;
66593;SDS011;53450;42.584;23.366;2022-11-20T02:24:26;2.58;;;1.00;;
66593;SDS011;53450;42.584;23.366;2022-11-20T02:26:53;2.80;;;1.00;;
66593;SDS011;53450;42.584;23.366;2022-11-20T02:29:44;5.57;;;1.10;;
66593;SDS011;53450;42.584;23.366;2022-11-20T02:32:28;4.38;;;0.90;;
66593;SDS011;53450;42.584;23.366;2022-11-20T02:34:58;0.57;;;0.57;;
66593;SDS011;53450;42.584;23.366;2022-11-20T02:37:32;5.45;;;0.95;;
66593;SDS011;53450;42.584;23.366;2022-11-20T02:40:00;2.60;;;1.20;;
66593;SDS011;53450;42.584;23.366;2022-11-20T02:42:26;6.00;;;1.30;;
66593;SDS011;53450;42.584;23.366;2022-11-20T02:44:51;1.45;;;0.75;;
66593;SDS011;53450;42.584;23.366;2022-11-20T02:47:17;5.10;;;0.98;;
66593;SDS011;53450;42.584;23.366;2022-11-20T02:49:42;2.42;;;0.80;;
66593;SDS011;53450;42.584;23.366;2022-11-20T02:52:08;1.10;;;1.00;;
66593;SDS011;53450;42.584;23.366;2022-11-20T02:54:33;1.88;;;1.23;;
66593;SDS011;53450;42.584;23.366;2022-11-20T02:57:01;3.05;;;1.05;;
66593;SDS011;53450;42.584;23.366;2022-11-20T02:59:26;2.00;;;1.10;;
66593;SDS011;53450;42.584;23.366;2022-11-20T03:01:52;5.35;;;1.23;;
66593;SDS011;53450;42.584;23.366;2022-11-20T03:04:17;5.80;;;1.13;;
66593;SDS011;53450;42.584;23.366;2022-11-20T03:06:43;3.08;;;1.17;;
66593;SDS011;53450;42.584;23.366;2022-11-20T03:09:09;2.67;;;0.93;;
66593;SDS011;53450;42.584;23.366;2022-11-20T03:11:34;1.88;;;1.10;;
66593;SDS011;53450;42.584;23.366;2022-11-20T03:14:03;2.20;;;0.70;;
66593;SDS011;53450;42.584;23.366;2022-11-20T03:16:30;8.13;;;1.27;;
66593;SDS011;53450;42.584;23.366;2022-11-20T03:18:56;2.00;;;1.40;;
66593;SDS011;53450;42.584;23.366;2022-11-20T03:21:22;4.47;;;1.00;;
66593;SDS011;53450;42.584;23.366;2022-11-20T03:23:47;2.92;;;1.00;;
66593;SDS011;53450;42.584;23.366;2022-11-20T03:26:17;3.40;;;1.05;;
66593;SDS011;53450;42.584;23.366;2022-11-20T03:31:18;3.33;;;1.23;;
66593;SDS011;53450;42.584;23.366;2022-11-20T03:33:46;2.15;;;1.05;;
66593;SDS011;53450;42.584;23.366;2022-11-20T03:36:13;3.00;;;1.00;;
66593;SDS011;53450;42.584;23.366;2022-11-20T03:38:40;1.73;;;1.10;;
66593;SDS011;53450;42.584;23.366;2022-11-20T03:41:10;2.30;;;1.13;;
66593;SDS011;53450;42.584;23.366;2022-11-20T03:44:03;2.45;;;1.00;;
66593;SDS011;53450;42.584;23.366;2022-11-20T03:46:30;5.97;;;1.05;;
66593;SDS011;53450;42.584;23.366;2022-11-20T03:48:57;2.35;;;1.10;;
66593;SDS011;53450;42.584;23.366;2022-11-20T03:51:24;4.13;;;1.15;;
66593;SDS011;53450;42.584;23.366;2022-11-20T03:53:50;5.50;;;1.25;;
66593;SDS011;53450;42.584;23.366;2022-11-20T03:56:18;3.17;;;0.90;;
66593;SDS011;53450;42.584;23.366;2022-11-20T03:58:45;2.47;;;1.10;;
66593;SDS011;53450;42.584;23.366;2022-11-20T04:01:11;2.38;;;0.95;;
66593;SDS011;53450;42.584;23.366;2022-11-20T04:03:39;3.70;;;1.48;;
66593;SDS011;53450;42.584;23.366;2022-11-20T04:06:09;5.07;;;1.55;;
66593;SDS011;53450;42.584;23.366;2022-11-20T04:08:37;4.45;;;1.63;;
66593;SDS011;53450;42.584;23.366;2022-11-20T04:13:46;1.77;;;1.30;;
66593;SDS011;53450;42.584;23.366;2022-11-20T04:16:16;0.80;;;0.80;;
66593;SDS011;53450;42.584;23.366;2022-11-20T04:18:43;0.95;;;0.90;;
66593;SDS011;53450;42.584;23.366;2022-11-20T04:21:34;3.75;;;0.50;;
66593;SDS011;53450;42.584;23.366;2022-11-20T04:24:04;4.03;;;1.27;;
66593;SDS011;53450;42.584;23.366;2022-11-20T04:26:30;6.18;;;1.63;;
66593;SDS011;53450;42.584;23.366;2022-11-20T04:28:56;3.90;;;1.15;;
66593;SDS011;53450;42.584;23.366;2022-11-20T04:31:23;1.98;;;1.02;;
66593;SDS011;53450;42.584;23.366;2022-11-20T04:33:50;2.50;;;1.00;;
66593;SDS011;53450;42.584;23.366;2022-11-20T04:36:20;2.35;;;1.17;;
66593;SDS011;53450;42.584;23.366;2022-11-20T04:38:50;2.90;;;1.05;;
66593;SDS011;53450;42.584;23.366;2022-11-20T04:41:20;8.55;;;0.98;;
66593;SDS011;53450;42.584;23.366;2022-11-20T04:43:47;2.58;;;1.10;;
66593;SDS011;53450;42.584;23.366;2022-11-20T04:46:14;2.63;;;1.15;;
66593;SDS011;53450;42.584;23.366;2022-11-20T04:48:40;2.97;;;0.80;;
66593;SDS011;53450;42.584;23.366;2022-11-20T04:51:06;3.03;;;1.40;;
66593;SDS011;53450;42.584;23.366;2022-11-20T04:53:32;3.83;;;1.17;;
66593;SDS011;53450;42.584;23.366;2022-11-20T04:56:01;3.55;;;1.20;;
66593;SDS011;53450;42.584;23.366;2022-11-20T04:58:36;3.22;;;1.20;;
66593;SDS011;53450;42.584;23.366;2022-11-20T05:01:03;3.25;;;1.08;;
66593;SDS011;53450;42.584;23.366;2022-11-20T05:03:32;2.35;;;1.08;;
66593;SDS011;53450;42.584;23.366;2022-11-20T05:06:01;1.67;;;1.13;;
66593;SDS011;53450;42.584;23.366;2022-11-20T05:08:29;5.40;;;1.13;;
66593;SDS011;53450;42.584;23.366;2022-11-20T05:11:12;1.20;;;1.10;;
66593;SDS011;53450;42.584;23.366;2022-11-20T05:13:40;1.23;;;1.13;;
66593;SDS011;53450;42.584;23.366;2022-11-20T05:16:06;2.55;;;1.35;;
66593;SDS011;53450;42.584;23.366;2022-11-20T05:19:05;2.35;;;1.63;;
66593;SDS011;53450;42.584;23.366;2022-11-20T05:21:56;2.50;;;1.33;;
66593;SDS011;53450;42.584;23.366;2022-11-20T05:24:22;9.43;;;2.88;;
66593;SDS011;53450;42.584;23.366;2022-11-20T05:26:48;5.28;;;1.48;;
66593;SDS011;53450;42.584;23.366;2022-11-20T05:29:13;2.63;;;1.48;;
66593;SDS011;53450;42.584;23.366;2022-11-20T05:31:39;4.43;;;1.45;;
66593;SDS011;53450;42.584;23.366;2022-11-20T05:34:05;8.15;;;1.50;;
66593;SDS011;53450;42.584;23.366;2022-11-20T05:36:31;3.88;;;1.67;;
66593;SDS011;53450;42.584;23.366;2022-11-20T05:38:57;5.32;;;1.83;;
66593;SDS011;53450;42.584;23.366;2022-11-20T05:41:23;5.78;;;1.63;;
66593;SDS011;53450;42.584;23.366;2022-11-20T05:43:49;3.42;;;1.70;;
66593;SDS011;53450;42.584;23.366;2022-11-20T05:46:16;3.88;;;1.42;;
66593;SDS011;53450;42.584;23.366;2022-11-20T05:48:43;3.58;;;1.38;;
66593;SDS011;53450;42.584;23.366;2022-11-20T05:51:12;5.80;;;1.77;;
66593;SDS011;53450;42.584;23.366;2022-11-20T05:54:09;4.63;;;1.60;;
66593;SDS011;53450;42.584;23.366;2022-11-20T05:56:34;5.22;;;1.55;;
66593;SDS011;53450;42.584;23.366;2022-11-20T05:59:00;3.25;;;1.45;;
66593;SDS011;53450;42.584;23.366;2022-11-20T06:01:25;11.70;;;1.67;;
66593;SDS011;53450;42.584;23.366;2022-11-20T06:03:52;4.93;;;1.42;;
66593;SDS011;53450;42.584;23.366;2022-11-20T06:06:18;5.32;;;1.40;;
66593;SDS011;53450;42.584;23.366;2022-11-20T06:08:44;9.07;;;1.67;;
66593;SDS011;53450;42.584;23.366;2022-11-20T06:11:11;4.75;;;1.77;;
66593;SDS011;53450;42.584;23.366;2022-11-20T06:13:37;3.47;;;1.50;;
66593;SDS011;53450;42.584;23.366;2022-11-20T06:16:03;2.20;;;1.38;;
66593;SDS011;53450;42.584;23.366;2022-11-20T06:18:29;5.75;;;1.45;;
66593;SDS011;53450;42.584;23.366;2022-11-20T06:21:15;10.18;;;1.63;;
66593;SDS011;53450;42.584;23.366;2022-11-20T06:23:42;4.40;;;1.30;;
66593;SDS011;53450;42.584;23.366;2022-11-20T06:26:09;6.60;;;1.20;;
66593;SDS011;53450;42.584;23.366;2022-11-20T06:28:36;5.20;;;1.30;;
66593;SDS011;53450;42.584;23.366;2022-11-20T06:31:02;6.47;;;1.80;;
66593;SDS011;53450;42.584;23.366;2022-11-20T06:33:29;6.35;;;1.40;;
66593;SDS011;53450;42.584;23.366;2022-11-20T06:35:58;2.92;;;1.42;;
66593;SDS011;53450;42.584;23.366;2022-11-20T06:38:50;3.70;;;1.13;;
66593;SDS011;53450;42.584;23.366;2022-11-20T06:41:16;3.08;;;1.00;;
66593;SDS011;53450;42.584;23.366;2022-11-20T06:43:44;5.95;;;1.00;;
66593;SDS011;53450;42.584;23.366;2022-11-20T06:46:10;3.63;;;0.98;;
66593;SDS011;53450;42.584;23.366;2022-11-20T06:48:37;1.73;;;0.88;;
66593;SDS011;53450;42.584;23.366;2022-11-20T06:51:04;2.03;;;1.10;;
66593;SDS011;53450;42.584;23.366;2022-11-20T06:55:08;10.15;;;1.05;;
66593;SDS011;53450;42.584;23.366;2022-11-20T06:57:59;1.98;;;1.27;;
66593;SDS011;53450;42.584;23.366;2022-11-20T07:00:24;3.53;;;1.48;;
66593;SDS011;53450;42.584;23.366;2022-11-20T07:02:50;3.78;;;1.33;;
66593;SDS011;53450;42.584;23.366;2022-11-20T07:05:16;5.85;;;1.88;;
66593;SDS011;53450;42.584;23.366;2022-11-20T07:07:42;8.57;;;2.05;;
66593;SDS011;53450;42.584;23.366;2022-11-20T07:10:08;5.45;;;2.72;;
66593;SDS011;53450;42.584;23.366;2022-11-20T07:12:34;5.05;;;1.63;;
66593;SDS011;53450;42.584;23.366;2022-11-20T07:15:00;6.80;;;1.90;;
66593;SDS011;53450;42.584;23.366;2022-11-20T07:17:28;2.70;;;1.40;;
66593;SDS011;53450;42.584;23.366;2022-11-20T07:19:54;6.07;;;1.00;;
66593;SDS011;53450;42.584;23.366;2022-11-20T07:22:19;4.18;;;1.83;;
66593;SDS011;53450;42.584;23.366;2022-11-20T07:24:47;5.88;;;1.08;;
66593;SDS011;53450;42.584;23.366;2022-11-20T07:27:12;1.45;;;0.88;;
66593;SDS011;53450;42.584;23.366;2022-11-20T07:29:38;4.75;;;1.00;;
66593;SDS011;53450;42.584;23.366;2022-11-20T07:32:04;5.70;;;1.60;;
66593;SDS011;53450;42.584;23.366;2022-11-20T07:35:28;5.28;;;2.38;;
66593;SDS011;53450;42.584;23.366;2022-11-20T07:37:53;2.85;;;1.40;;
66593;SDS011;53450;42.584;23.366;2022-11-20T07:40:19;6.53;;;1.80;;
66593;SDS011;53450;42.584;23.366;2022-11-20T07:42:48;6.35;;;1.35;;
66593;SDS011;53450;42.584;23.366;2022-11-20T07:45:18;7.40;;;1.50;;
66593;SDS011;53450;42.584;23.366;2022-11-20T07:47:44;38.33;;;16.23;;
66593;SDS011;53450;42.584;23.366;2022-11-20T07:50:10;21.75;;;6.00;;
66593;SDS011;53450;42.584;23.366;2022-11-20T07:52:36;39.88;;;19.52;;
66593;SDS011;53450;42.584;23.366;2022-11-20T07:55:02;13.48;;;6.05;;
66593;SDS011;53450;42.584;23.366;2022-11-20T07:57:28;8.23;;;2.83;;
66593;SDS011;53450;42.584;23.366;2022-11-20T07:59:54;8.63;;;2.75;;
66593;SDS011;53450;42.584;23.366;2022-11-20T08:02:19;7.10;;;3.13;;
66593;SDS011;53450;42.584;23.366;2022-11-20T08:04:45;8.20;;;4.65;;
66593;SDS011;53450;42.584;23.366;2022-11-20T08:07:10;5.88;;;2.00;;
66593;SDS011;53450;42.584;23.366;2022-11-20T08:09:36;8.40;;;1.88;;
66593;SDS011;53450;42.584;23.366;2022-11-20T08:12:01;11.45;;;1.50;;
66593;SDS011;53450;42.584;23.366;2022-11-20T08:14:46;9.65;;;2.65;;
66593;SDS011;53450;42.584;23.366;2022-11-20T08:17:14;4.18;;;1.60;;
66593;SDS011;53450;42.584;23.366;2022-11-20T08:19:39;8.57;;;1.88;;
66593;SDS011;53450;42.584;23.366;2022-11-20T08:22:07;6.03;;;1.90;;
66593;SDS011;53450;42.584;23.366;2022-11-20T08:24:33;8.63;;;2.17;;
66593;SDS011;53450;42.584;23.366;2022-11-20T08:26:59;6.30;;;1.85;;
66593;SDS011;53450;42.584;23.366;2022-11-20T08:29:27;5.25;;;1.70;;
66593;SDS011;53450;42.584;23.366;2022-11-20T08:31:53;6.68;;;2.17;;
66593;SDS011;53450;42.584;23.366;2022-11-20T08:34:18;8.52;;;1.80;;
66593;SDS011;53450;42.584;23.366;2022-11-20T08:36:44;9.68;;;1.60;;
66593;SDS011;53450;42.584;23.366;2022-11-20T08:39:13;4.05;;;1.50;;
66593;SDS011;53450;42.584;23.366;2022-11-20T08:41:39;74.65;;;22.98;;
66593;SDS011;53450;42.584;23.366;2022-11-20T08:44:05;10.60;;;2.10;;
66593;SDS011;53450;42.584;23.366;2022-11-20T08:46:38;4.30;;;1.40;;
66593;SDS011;53450;42.584;23.366;2022-11-20T08:51:36;6.03;;;1.13;;
66593;SDS011;53450;42.584;23.366;2022-11-20T08:54:02;14.35;;;1.70;;
66593;SDS011;53450;42.584;23.366;2022-11-20T08:57:06;9.75;;;1.60;;
66593;SDS011;53450;42.584;23.366;2022-11-20T08:59:31;7.40;;;2.58;;
66593;SDS011;53450;42.584;23.366;2022-11-20T09:01:57;2.75;;;1.95;;
66593;SDS011;53450;42.584;23.366;2022-11-20T09:04:23;8.38;;;2.40;;
66593;SDS011;53450;42.584;23.366;2022-11-20T09:06:49;7.85;;;2.05;;
66593;SDS011;53450;42.584;23.366;2022-11-20T09:09:16;10.85;;;4.57;;
66593;SDS011;53450;42.584;23.366;2022-11-20T09:11:43;11.38;;;5.35;;
66593;SDS011;53450;42.584;23.366;2022-11-20T09:14:08;5.10;;;3.55;;
66593;SDS011;53450;42.584;23.366;2022-11-20T09:16:34;6.70;;;3.53;;
66593;SDS011;53450;42.584;23.366;2022-11-20T09:18:59;6.65;;;4.20;;
66593;SDS011;53450;42.584;23.366;2022-11-20T09:21:25;4.43;;;3.35;;
66593;SDS011;53450;42.584;23.366;2022-11-20T09:23:50;4.10;;;2.83;;
66593;SDS011;53450;42.584;23.366;2022-11-20T09:26:16;11.82;;;3.70;;
66593;SDS011;53450;42.584;23.366;2022-11-20T09:28:41;13.80;;;3.97;;
66593;SDS011;53450;42.584;23.366;2022-11-20T09:31:08;8.60;;;3.88;;
66593;SDS011;53450;42.584;23.366;2022-11-20T09:35:46;9.40;;;3.75;;
66593;SDS011;53450;42.584;23.366;2022-11-20T09:38:12;11.25;;;5.25;;
66593;SDS011;53450;42.584;23.366;2022-11-20T09:40:40;22.73;;;9.35;;
66593;SDS011;53450;42.584;23.366;2022-11-20T09:43:18;36.47;;;15.32;;
66593;SDS011;53450;42.584;23.366;2022-11-20T09:54:19;8.15;;;3.25;;
66593;SDS011;53450;42.584;23.366;2022-11-20T09:56:44;8.88;;;3.42;;
66593;SDS011;53450;42.584;23.366;2022-11-20T09:59:36;8.32;;;3.35;;
66593;SDS011;53450;42.584;23.366;2022-11-20T10:05:21;10.93;;;3.95;;
66593;SDS011;53450;42.584;23.366;2022-11-20T10:13:24;8.52;;;3.20;;
66593;SDS011;53450;42.584;23.366;2022-11-20T10:24:23;25.33;;;4.03;;
66593;SDS011;53450;42.584;23.366;2022-11-20T10:27:03;12.85;;;4.07;;
66593;SDS011;53450;42.584;23.366;2022-11-20T10:29:39;19.02;;;4.50;;
66593;SDS011;53450;42.584;23.366;2022-11-20T10:32:11;10.38;;;2.50;;
66593;SDS011;53450;42.584;23.366;2022-11-20T10:37:21;11.80;;;3.45;;
66593;SDS011;53450;42.584;23.366;2022-11-20T10:42:43;13.40;;;3.92;;
66593;SDS011;53450;42.584;23.366;2022-11-20T10:47:55;17.17;;;6.22;;
66593;SDS011;53450;42.584;23.366;2022-11-20T10:51:17;12.00;;;4.10;;
66593;SDS011;53450;42.584;23.366;2022-11-20T11:01:45;12.77;;;2.67;;
66593;SDS011;53450;42.584;23.366;2022-11-20T11:07:10;7.38;;;3.00;;
66593;SDS011;53450;42.584;23.366;2022-11-20T11:12:12;16.10;;;3.75;;
66593;SDS011;53450;42.584;23.366;2022-11-20T11:14:45;11.77;;;2.35;;
66593;SDS011;53450;42.584;23.366;2022-11-20T11:17:20;10.65;;;2.50;;
66593;SDS011;53450;42.584;23.366;2022-11-20T11:22:42;10.90;;;4.20;;
66593;SDS011;53450;42.584;23.366;2022-11-20T11:27:46;8.75;;;5.55;;
66593;SDS011;53450;42.584;23.366;2022-11-20T11:30:13;8.63;;;4.50;;
66593;SDS011;53450;42.584;23.366;2022-11-20T11:32:41;16.13;;;4.72;;
66593;SDS011;53450;42.584;23.366;2022-11-20T11:35:11;23.58;;;10.10;;
66593;SDS011;53450;42.584;23.366;2022-11-20T11:37:45;30.48;;;15.27;;
66593;SDS011;53450;42.584;23.366;2022-11-20T11:40:12;16.83;;;10.80;;
66593;SDS011;53450;42.584;23.366;2022-11-20T11:43:16;16.05;;;4.68;;
66593;SDS011;53450;42.584;23.366;2022-11-20T11:45:55;5.80;;;3.63;;
66593;SDS011;53450;42.584;23.366;2022-11-20T11:48:21;10.10;;;5.88;;
66593;SDS011;53450;42.584;23.366;2022-11-20T11:50:48;8.05;;;3.03;;
66593;SDS011;53450;42.584;23.366;2022-11-20T11:53:18;5.30;;;3.53;;
66593;SDS011;53450;42.584;23.366;2022-11-20T11:55:47;4.38;;;3.75;;
66593;SDS011;53450;42.584;23.366;2022-11-20T12:10:21;12.80;;;4.70;;
66593;SDS011;53450;42.584;23.366;2022-11-20T12:12:54;2.40;;;2.03;;
66593;SDS011;53450;42.584;23.366;2022-11-20T12:15:45;8.38;;;5.18;;
66593;SDS011;53450;42.584;23.366;2022-11-20T12:18:16;10.77;;;3.45;;
66593;SDS011;53450;42.584;23.366;2022-11-20T12:20:45;3.13;;;2.47;;
66593;SDS011;53450;42.584;23.366;2022-11-20T12:26:13;11.52;;;3.13;;
66593;SDS011;53450;42.584;23.366;2022-11-20T12:31:52;11.80;;;8.25;;
66593;SDS011;53450;42.584;23.366;2022-11-20T12:37:39;1.17;;;1.05;;
66593;SDS011;53450;42.584;23.366;2022-11-20T12:43:21;3.40;;;1.20;;
66593;SDS011;53450;42.584;23.366;2022-11-20T13:08:00;16.80;;;3.58;;
66593;SDS011;53450;42.584;23.366;2022-11-20T13:10:38;4.82;;;1.70;;
66593;SDS011;53450;42.584;23.366;2022-11-20T13:13:13;2.35;;;1.42;;
66593;SDS011;53450;42.584;23.366;2022-11-20T13:18:18;7.97;;;1.65;;
66593;SDS011;53450;42.584;23.366;2022-11-20T13:20:44;5.10;;;2.03;;
66593;SDS011;53450;42.584;23.366;2022-11-20T13:23:10;23.13;;;8.43;;
66593;SDS011;53450;42.584;23.366;2022-11-20T13:25:37;25.98;;;15.20;;
66593;SDS011;53450;42.584;23.366;2022-11-20T13:30:36;15.07;;;6.78;;
66593;SDS011;53450;42.584;23.366;2022-11-20T13:33:24;9.32;;;4.03;;
66593;SDS011;53450;42.584;23.366;2022-11-20T13:36:20;5.18;;;2.80;;
66593;SDS011;53450;42.584;23.366;2022-11-20T13:38:47;39.15;;;15.93;;
66593;SDS011;53450;42.584;23.366;2022-11-20T13:43:57;18.80;;;10.95;;
66593;SDS011;53450;42.584;23.366;2022-11-20T13:46:44;29.02;;;19.42;;
66593;SDS011;53450;42.584;23.366;2022-11-20T13:49:18;28.67;;;18.05;;
66593;SDS011;53450;42.584;23.366;2022-11-20T13:51:51;12.35;;;7.18;;
66593;SDS011;53450;42.584;23.366;2022-11-20T13:57:54;16.27;;;8.30;;
66593;SDS011;53450;42.584;23.366;2022-11-20T14:00:29;19.25;;;10.18;;
66593;SDS011;53450;42.584;23.366;2022-11-20T14:05:31;21.50;;;10.40;;
66593;SDS011;53450;42.584;23.366;2022-11-20T14:08:02;22.50;;;9.02;;
66593;SDS011;53450;42.584;23.366;2022-11-20T14:10:30;16.15;;;9.82;;
66593;SDS011;53450;42.584;23.366;2022-11-20T14:16:36;31.90;;;16.80;;
66593;SDS011;53450;42.584;23.366;2022-11-20T14:21:50;29.73;;;13.85;;
66593;SDS011;53450;42.584;23.366;2022-11-20T14:24:18;21.85;;;13.18;;
66593;SDS011;53450;42.584;23.366;2022-11-20T14:26:45;31.75;;;17.27;;
66593;SDS011;53450;42.584;23.366;2022-11-20T14:29:19;43.47;;;22.42;;
66593;SDS011;53450;42.584;23.366;2022-11-20T14:31:47;32.85;;;18.80;;
66593;SDS011;53450;42.584;23.366;2022-11-20T14:34:32;36.15;;;21.85;;
66593;SDS011;53450;42.584;23.366;2022-11-20T14:37:04;49.30;;;28.90;;
66593;SDS011;53450;42.584;23.366;2022-11-20T14:39:35;42.10;;;24.80;;
66593;SDS011;53450;42.584;23.366;2022-11-20T14:42:03;52.13;;;26.63;;
66593;SDS011;53450;42.584;23.366;2022-11-20T14:44:45;52.17;;;26.23;;
66593;SDS011;53450;42.584;23.366;2022-11-20T14:47:12;60.22;;;29.90;;
66593;SDS011;53450;42.584;23.366;2022-11-20T14:49:40;78.03;;;34.72;;
66593;SDS011;53450;42.584;23.366;2022-11-20T14:52:17;45.45;;;25.40;;
66593;SDS011;53450;42.584;23.366;2022-11-20T14:54:50;29.77;;;17.38;;
66593;SDS011;53450;42.584;23.366;2022-11-20T14:59:46;29.75;;;16.17;;
66593;SDS011;53450;42.584;23.366;2022-11-20T15:02:12;37.42;;;16.10;;
66593;SDS011;53450;42.584;23.366;2022-11-20T15:04:48;34.90;;;15.38;;
66593;SDS011;53450;42.584;23.366;2022-11-20T15:07:28;19.05;;;10.63;;
66593;SDS011;53450;42.584;23.366;2022-11-20T15:10:38;34.15;;;19.17;;
66593;SDS011;53450;42.584;23.366;2022-11-20T15:12:50;72.35;;;33.50;;
66593;SDS011;53450;42.584;23.366;2022-11-20T15:15:41;27.90;;;15.63;;
66593;SDS011;53450;42.584;23.366;2022-11-20T15:18:11;80.90;;;40.35;;
66593;SDS011;53450;42.584;23.366;2022-11-20T15:20:38;169.07;;;62.07;;
66593;SDS011;53450;42.584;23.366;2022-11-20T15:23:14;23.60;;;11.30;;
66593;SDS011;53450;42.584;23.366;2022-11-20T15:25:42;38.80;;;16.90;;
66593;SDS011;53450;42.584;23.366;2022-11-20T15:28:19;31.92;;;14.23;;
66593;SDS011;53450;42.584;23.366;2022-11-20T15:30:49;33.42;;;17.27;;
66593;SDS011;53450;42.584;23.366;2022-11-20T15:33:15;35.47;;;19.65;;
66593;SDS011;53450;42.584;23.366;2022-11-20T15:35:41;20.17;;;9.77;;
66593;SDS011;53450;42.584;23.366;2022-11-20T15:38:07;19.15;;;12.45;;
66593;SDS011;53450;42.584;23.366;2022-11-20T15:40:33;11.77;;;8.05;;
66593;SDS011;53450;42.584;23.366;2022-11-20T15:42:58;32.20;;;17.95;;
66593;SDS011;53450;42.584;23.366;2022-11-20T15:45:36;20.20;;;12.80;;
66593;SDS011;53450;42.584;23.366;2022-11-20T15:48:07;28.00;;;17.42;;
66593;SDS011;53450;42.584;23.366;2022-11-20T15:53:38;11.43;;;6.72;;
66593;SDS011;53450;42.584;23.366;2022-11-20T15:56:05;11.77;;;6.38;;
66593;SDS011;53450;42.584;23.366;2022-11-20T15:58:31;4.85;;;3.22;;
66593;SDS011;53450;42.584;23.366;2022-11-20T16:00:57;25.70;;;6.45;;
66593;SDS011;53450;42.584;23.366;2022-11-20T16:03:23;8.13;;;3.85;;
66593;SDS011;53450;42.584;23.366;2022-11-20T16:05:49;20.38;;;9.27;;
66593;SDS011;53450;42.584;23.366;2022-11-20T16:08:14;15.55;;;6.85;;
66593;SDS011;53450;42.584;23.366;2022-11-20T16:10:40;3.70;;;2.60;;
66593;SDS011;53450;42.584;23.366;2022-11-20T16:13:16;5.15;;;3.13;;
66593;SDS011;53450;42.584;23.366;2022-11-20T16:18:01;5.10;;;3.72;;
66593;SDS011;53450;42.584;23.366;2022-11-20T16:20:27;6.30;;;4.53;;
66593;SDS011;53450;42.584;23.366;2022-11-20T16:22:54;6.00;;;4.55;;
66593;SDS011;53450;42.584;23.366;2022-11-20T16:25:20;8.63;;;5.30;;
66593;SDS011;53450;42.584;23.366;2022-11-20T16:27:45;13.93;;;6.85;;
66593;SDS011;53450;42.584;23.366;2022-11-20T16:30:11;17.77;;;11.35;;
66593;SDS011;53450;42.584;23.366;2022-11-20T16:32:37;21.67;;;13.02;;
66593;SDS011;53450;42.584;23.366;2022-11-20T16:35:06;12.55;;;6.85;;
66593;SDS011;53450;42.584;23.366;2022-11-20T16:37:32;25.20;;;11.15;;
66593;SDS011;53450;42.584;23.366;2022-11-20T16:39:58;10.25;;;7.05;;
66593;SDS011;53450;42.584;23.366;2022-11-20T16:42:23;6.68;;;4.90;;
66593;SDS011;53450;42.584;23.366;2022-11-20T16:44:49;7.68;;;4.10;;
66593;SDS011;53450;42.584;23.366;2022-11-20T16:47:14;6.05;;;4.55;;
66593;SDS011;53450;42.584;23.366;2022-11-20T16:49:40;11.85;;;7.60;;
66593;SDS011;53450;42.584;23.366;2022-11-20T16:52:06;9.18;;;4.75;;
66593;SDS011;53450;42.584;23.366;2022-11-20T17:00:23;14.38;;;8.40;;
66593;SDS011;53450;42.584;23.366;2022-11-20T17:05:23;19.08;;;11.27;;
66593;SDS011;53450;42.584;23.366;2022-11-20T17:07:48;8.80;;;5.75;;
66593;SDS011;53450;42.584;23.366;2022-11-20T17:10:14;36.75;;;22.98;;
66593;SDS011;53450;42.584;23.366;2022-11-20T17:12:39;39.50;;;17.10;;
66593;SDS011;53450;42.584;23.366;2022-11-20T17:15:05;18.80;;;10.30;;
66593;SDS011;53450;42.584;23.366;2022-11-20T17:17:31;76.25;;;28.33;;
66593;SDS011;53450;42.584;23.366;2022-11-20T17:19:56;55.53;;;21.42;;
66593;SDS011;53450;42.584;23.366;2022-11-20T17:22:22;46.35;;;17.30;;
66593;SDS011;53450;42.584;23.366;2022-11-20T17:24:48;21.75;;;10.23;;
66593;SDS011;53450;42.584;23.366;2022-11-20T17:27:13;42.20;;;12.45;;